sensor_id;sensor_type;location;lat;lon;timestamp;P1;durP1;ratioP1;P2;durP2;ratioP2
9473;SDS011;8865;47.636;7.692;2022-08-25T00:00:43;6.67;;;3.50;;
9473;SDS011;8865;47.636;7.692;2022-08-25T00:03:10;5.87;;;3.40;;
9473;SDS011;8865;47.636;7.692;2022-08-25T00:05:36;3.60;;;3.00;;
9473;SDS011;8865;47.636;7.692;2022-08-25T00:08:02;4.80;;;3.50;;
9473;SDS011;8865;47.636;7.692;2022-08-25T00:10:31;3.67;;;3.37;;
9473;SDS011;8865;47.636;7.692;2022-08-25T00:12:59;4.17;;;3.43;;
9473;SDS011;8865;47.636;7.692;2022-08-25T00:15:26;3.70;;;3.40;;
9473;SDS011;8865;47.636;7.692;2022-08-25T00:17:53;3.63;;;3.33;;
9473;SDS011;8865;47.636;7.692;2022-08-25T00:20:19;4.33;;;3.40;;
9473;SDS011;8865;47.636;7.692;2022-08-25T00:22:46;3.70;;;3.37;;
9473;SDS011;8865;47.636;7.692;2022-08-25T00:25:13;3.77;;;3.23;;
9473;SDS011;8865;47.636;7.692;2022-08-25T00:27:40;4.73;;;3.40;;
9473;SDS011;8865;47.636;7.692;2022-08-25T00:30:08;4.57;;;3.40;;
9473;SDS011;8865;47.636;7.692;2022-08-25T00:32:35;3.70;;;3.40;;
9473;SDS011;8865;47.636;7.692;2022-08-25T00:35:01;4.73;;;3.63;;
9473;SDS011;8865;47.636;7.692;2022-08-25T00:37:28;4.00;;;3.10;;
9473;SDS011;8865;47.636;7.692;2022-08-25T00:39:54;4.97;;;3.40;;
9473;SDS011;8865;47.636;7.692;2022-08-25T00:42:22;3.60;;;3.30;;
9473;SDS011;8865;47.636;7.692;2022-08-25T00:44:49;4.20;;;3.30;;
9473;SDS011;8865;47.636;7.692;2022-08-25T00:47:15;6.00;;;3.97;;
9473;SDS011;8865;47.636;7.692;2022-08-25T00:49:43;4.27;;;3.73;;
9473;SDS011;8865;47.636;7.692;2022-08-25T00:52:19;4.07;;;3.40;;
9473;SDS011;8865;47.636;7.692;2022-08-25T00:54:49;3.97;;;3.13;;
9473;SDS011;8865;47.636;7.692;2022-08-25T00:57:20;4.40;;;3.33;;
9473;SDS011;8865;47.636;7.692;2022-08-25T00:59:51;3.50;;;3.30;;
9473;SDS011;8865;47.636;7.692;2022-08-25T01:02:17;3.80;;;3.40;;
9473;SDS011;8865;47.636;7.692;2022-08-25T01:04:43;4.63;;;3.27;;
9473;SDS011;8865;47.636;7.692;2022-08-25T01:07:11;5.57;;;3.53;;
9473;SDS011;8865;47.636;7.692;2022-08-25T01:09:39;3.40;;;3.10;;
9473;SDS011;8865;47.636;7.692;2022-08-25T01:12:07;4.33;;;3.40;;
9473;SDS011;8865;47.636;7.692;2022-08-25T01:14:33;3.10;;;2.90;;
9473;SDS011;8865;47.636;7.692;2022-08-25T01:17:01;3.73;;;3.20;;
9473;SDS011;8865;47.636;7.692;2022-08-25T01:19:28;3.30;;;3.10;;
9473;SDS011;8865;47.636;7.692;2022-08-25T01:21:58;3.57;;;3.27;;
9473;SDS011;8865;47.636;7.692;2022-08-25T01:24:32;4.80;;;3.63;;
9473;SDS011;8865;47.636;7.692;2022-08-25T01:27:03;4.10;;;3.40;;
9473;SDS011;8865;47.636;7.692;2022-08-25T01:29:30;3.70;;;3.33;;
9473;SDS011;8865;47.636;7.692;2022-08-25T01:31:58;4.73;;;3.80;;
9473;SDS011;8865;47.636;7.692;2022-08-25T01:34:28;3.57;;;3.27;;
9473;SDS011;8865;47.636;7.692;2022-08-25T01:36:57;4.90;;;3.80;;
9473;SDS011;8865;47.636;7.692;2022-08-25T01:39:26;10.40;;;3.83;;
9473;SDS011;8865;47.636;7.692;2022-08-25T01:44:32;4.03;;;3.67;;
9473;SDS011;8865;47.636;7.692;2022-08-25T01:47:00;4.03;;;3.40;;
9473;SDS011;8865;47.636;7.692;2022-08-25T01:49:27;4.53;;;4.03;;
9473;SDS011;8865;47.636;7.692;2022-08-25T01:52:29;3.67;;;3.37;;
9473;SDS011;8865;47.636;7.692;2022-08-25T01:54:52;4.00;;;3.60;;
9473;SDS011;8865;47.636;7.692;2022-08-25T01:57:18;4.13;;;3.83;;
9473;SDS011;8865;47.636;7.692;2022-08-25T01:59:44;3.80;;;3.50;;
9473;SDS011;8865;47.636;7.692;2022-08-25T02:02:10;4.23;;;3.83;;
9473;SDS011;8865;47.636;7.692;2022-08-25T02:04:37;4.70;;;3.80;;
9473;SDS011;8865;47.636;7.692;2022-08-25T02:07:04;5.27;;;3.90;;
9473;SDS011;8865;47.636;7.692;2022-08-25T02:09:32;4.23;;;3.83;;
9473;SDS011;8865;47.636;7.692;2022-08-25T02:11:58;4.37;;;3.97;;
9473;SDS011;8865;47.636;7.692;2022-08-25T02:14:24;5.23;;;3.90;;
9473;SDS011;8865;47.636;7.692;2022-08-25T02:16:52;4.20;;;3.80;;
9473;SDS011;8865;47.636;7.692;2022-08-25T02:19:20;4.13;;;3.60;;
9473;SDS011;8865;47.636;7.692;2022-08-25T02:21:49;3.87;;;3.57;;
9473;SDS011;8865;47.636;7.692;2022-08-25T02:24:15;4.03;;;3.73;;
9473;SDS011;8865;47.636;7.692;2022-08-25T02:26:41;3.97;;;3.47;;
9473;SDS011;8865;47.636;7.692;2022-08-25T02:29:08;4.20;;;3.80;;
9473;SDS011;8865;47.636;7.692;2022-08-25T02:31:35;4.00;;;3.70;;
9473;SDS011;8865;47.636;7.692;2022-08-25T02:34:12;4.10;;;3.70;;
9473;SDS011;8865;47.636;7.692;2022-08-25T02:36:39;3.70;;;3.40;;
9473;SDS011;8865;47.636;7.692;2022-08-25T02:39:07;4.20;;;3.53;;
9473;SDS011;8865;47.636;7.692;2022-08-25T02:41:33;4.13;;;3.77;;
9473;SDS011;8865;47.636;7.692;2022-08-25T02:44:00;4.67;;;3.93;;
9473;SDS011;8865;47.636;7.692;2022-08-25T02:46:28;4.00;;;3.60;;
9473;SDS011;8865;47.636;7.692;2022-08-25T02:48:54;4.00;;;3.70;;
9473;SDS011;8865;47.636;7.692;2022-08-25T02:51:21;4.73;;;4.07;;
9473;SDS011;8865;47.636;7.692;2022-08-25T02:53:48;6.60;;;4.33;;
9473;SDS011;8865;47.636;7.692;2022-08-25T02:56:16;3.57;;;3.37;;
9473;SDS011;8865;47.636;7.692;2022-08-25T02:58:43;4.63;;;3.60;;
9473;SDS011;8865;47.636;7.692;2022-08-25T03:01:10;3.77;;;3.47;;
9473;SDS011;8865;47.636;7.692;2022-08-25T03:03:37;4.30;;;3.90;;
9473;SDS011;8865;47.636;7.692;2022-08-25T03:06:06;6.70;;;4.00;;
9473;SDS011;8865;47.636;7.692;2022-08-25T03:08:37;4.20;;;3.83;;
9473;SDS011;8865;47.636;7.692;2022-08-25T03:11:04;4.13;;;3.73;;
9473;SDS011;8865;47.636;7.692;2022-08-25T03:13:30;4.37;;;3.87;;
9473;SDS011;8865;47.636;7.692;2022-08-25T03:15:58;5.43;;;3.83;;
9473;SDS011;8865;47.636;7.692;2022-08-25T03:18:24;4.63;;;3.60;;
9473;SDS011;8865;47.636;7.692;2022-08-25T03:20:50;4.23;;;3.73;;
9473;SDS011;8865;47.636;7.692;2022-08-25T03:23:16;4.03;;;3.70;;
9473;SDS011;8865;47.636;7.692;2022-08-25T03:25:42;5.90;;;3.60;;
9473;SDS011;8865;47.636;7.692;2022-08-25T03:28:28;5.23;;;4.30;;
9473;SDS011;8865;47.636;7.692;2022-08-25T03:30:56;4.40;;;3.80;;
9473;SDS011;8865;47.636;7.692;2022-08-25T03:33:25;4.47;;;3.87;;
9473;SDS011;8865;47.636;7.692;2022-08-25T03:35:53;4.60;;;3.90;;
9473;SDS011;8865;47.636;7.692;2022-08-25T03:38:20;5.23;;;3.60;;
9473;SDS011;8865;47.636;7.692;2022-08-25T03:40:47;8.87;;;4.43;;
9473;SDS011;8865;47.636;7.692;2022-08-25T03:43:13;5.30;;;3.70;;
9473;SDS011;8865;47.636;7.692;2022-08-25T03:45:40;5.10;;;4.30;;
9473;SDS011;8865;47.636;7.692;2022-08-25T03:48:07;4.07;;;3.57;;
9473;SDS011;8865;47.636;7.692;2022-08-25T03:50:33;4.67;;;4.23;;
9473;SDS011;8865;47.636;7.692;2022-08-25T03:53:00;4.63;;;4.30;;
9473;SDS011;8865;47.636;7.692;2022-08-25T03:55:26;5.20;;;3.50;;
9473;SDS011;8865;47.636;7.692;2022-08-25T03:57:53;4.60;;;4.20;;
9473;SDS011;8865;47.636;7.692;2022-08-25T04:00:20;4.93;;;4.07;;
9473;SDS011;8865;47.636;7.692;2022-08-25T04:02:47;5.67;;;3.83;;
9473;SDS011;8865;47.636;7.692;2022-08-25T04:05:14;3.83;;;3.53;;
9473;SDS011;8865;47.636;7.692;2022-08-25T04:07:40;4.57;;;3.93;;
9473;SDS011;8865;47.636;7.692;2022-08-25T04:10:07;4.60;;;4.20;;
9473;SDS011;8865;47.636;7.692;2022-08-25T04:12:34;5.33;;;4.03;;
9473;SDS011;8865;47.636;7.692;2022-08-25T04:15:02;5.30;;;3.70;;
9473;SDS011;8865;47.636;7.692;2022-08-25T04:17:30;5.60;;;4.70;;
9473;SDS011;8865;47.636;7.692;2022-08-25T04:19:56;5.10;;;4.20;;
9473;SDS011;8865;47.636;7.692;2022-08-25T04:22:22;5.13;;;4.63;;
9473;SDS011;8865;47.636;7.692;2022-08-25T04:24:48;4.23;;;3.83;;
9473;SDS011;8865;47.636;7.692;2022-08-25T04:27:14;5.10;;;4.17;;
9473;SDS011;8865;47.636;7.692;2022-08-25T04:29:40;4.67;;;4.27;;
9473;SDS011;8865;47.636;7.692;2022-08-25T04:32:06;4.83;;;4.43;;
9473;SDS011;8865;47.636;7.692;2022-08-25T04:34:32;5.30;;;4.00;;
9473;SDS011;8865;47.636;7.692;2022-08-25T04:36:59;4.90;;;4.43;;
9473;SDS011;8865;47.636;7.692;2022-08-25T04:39:27;5.33;;;4.83;;
9473;SDS011;8865;47.636;7.692;2022-08-25T04:41:54;6.30;;;4.80;;
9473;SDS011;8865;47.636;7.692;2022-08-25T04:44:20;5.10;;;4.60;;
9473;SDS011;8865;47.636;7.692;2022-08-25T04:46:46;4.90;;;4.40;;
9473;SDS011;8865;47.636;7.692;2022-08-25T04:49:12;6.13;;;4.60;;
9473;SDS011;8865;47.636;7.692;2022-08-25T04:51:38;7.03;;;4.90;;
9473;SDS011;8865;47.636;7.692;2022-08-25T04:54:06;4.40;;;4.10;;
9473;SDS011;8865;47.636;7.692;2022-08-25T04:56:35;4.67;;;4.27;;
9473;SDS011;8865;47.636;7.692;2022-08-25T04:59:06;5.80;;;4.57;;
9473;SDS011;8865;47.636;7.692;2022-08-25T05:01:35;5.23;;;4.63;;
9473;SDS011;8865;47.636;7.692;2022-08-25T05:04:02;5.57;;;4.20;;
9473;SDS011;8865;47.636;7.692;2022-08-25T05:06:31;5.03;;;4.00;;
9473;SDS011;8865;47.636;7.692;2022-08-25T05:08:57;4.33;;;3.93;;
9473;SDS011;8865;47.636;7.692;2022-08-25T05:11:24;4.17;;;3.80;;
9473;SDS011;8865;47.636;7.692;2022-08-25T05:13:51;8.33;;;4.90;;
9473;SDS011;8865;47.636;7.692;2022-08-25T05:16:19;5.30;;;4.60;;
9473;SDS011;8865;47.636;7.692;2022-08-25T05:18:47;8.13;;;4.30;;
9473;SDS011;8865;47.636;7.692;2022-08-25T05:21:14;8.13;;;4.40;;
9473;SDS011;8865;47.636;7.692;2022-08-25T05:23:42;10.20;;;4.80;;
9473;SDS011;8865;47.636;7.692;2022-08-25T05:26:10;5.00;;;4.17;;
9473;SDS011;8865;47.636;7.692;2022-08-25T05:28:38;6.60;;;4.30;;
9473;SDS011;8865;47.636;7.692;2022-08-25T05:31:09;5.57;;;4.40;;
9473;SDS011;8865;47.636;7.692;2022-08-25T05:33:36;8.67;;;4.50;;
9473;SDS011;8865;47.636;7.692;2022-08-25T05:36:04;5.23;;;4.30;;
9473;SDS011;8865;47.636;7.692;2022-08-25T05:38:31;9.33;;;4.97;;
9473;SDS011;8865;47.636;7.692;2022-08-25T05:40:58;5.50;;;5.00;;
9473;SDS011;8865;47.636;7.692;2022-08-25T05:43:26;6.33;;;5.10;;
9473;SDS011;8865;47.636;7.692;2022-08-25T05:45:56;4.90;;;4.40;;
9473;SDS011;8865;47.636;7.692;2022-08-25T05:48:23;7.83;;;4.37;;
9473;SDS011;8865;47.636;7.692;2022-08-25T05:50:50;4.30;;;3.90;;
9473;SDS011;8865;47.636;7.692;2022-08-25T05:53:21;7.73;;;3.97;;
9473;SDS011;8865;47.636;7.692;2022-08-25T05:55:49;4.90;;;4.00;;
9473;SDS011;8865;47.636;7.692;2022-08-25T05:58:16;6.23;;;4.40;;
9473;SDS011;8865;47.636;7.692;2022-08-25T06:00:43;8.33;;;4.20;;
9473;SDS011;8865;47.636;7.692;2022-08-25T06:03:09;5.23;;;4.70;;
9473;SDS011;8865;47.636;7.692;2022-08-25T06:05:36;6.60;;;4.37;;
9473;SDS011;8865;47.636;7.692;2022-08-25T06:08:02;4.90;;;4.43;;
9473;SDS011;8865;47.636;7.692;2022-08-25T06:10:28;5.10;;;4.10;;
9473;SDS011;8865;47.636;7.692;2022-08-25T06:12:54;5.50;;;4.10;;
9473;SDS011;8865;47.636;7.692;2022-08-25T06:15:21;5.07;;;4.40;;
9473;SDS011;8865;47.636;7.692;2022-08-25T06:17:49;4.67;;;3.83;;
9473;SDS011;8865;47.636;7.692;2022-08-25T06:20:17;5.00;;;3.67;;
9473;SDS011;8865;47.636;7.692;2022-08-25T06:22:45;4.00;;;3.60;;
9473;SDS011;8865;47.636;7.692;2022-08-25T06:25:13;5.57;;;3.63;;
9473;SDS011;8865;47.636;7.692;2022-08-25T06:27:41;5.97;;;4.00;;
9473;SDS011;8865;47.636;7.692;2022-08-25T06:30:08;4.53;;;3.47;;
9473;SDS011;8865;47.636;7.692;2022-08-25T06:32:37;3.90;;;3.60;;
9473;SDS011;8865;47.636;7.692;2022-08-25T06:35:05;4.57;;;3.87;;
9473;SDS011;8865;47.636;7.692;2022-08-25T06:37:33;3.97;;;3.53;;
9473;SDS011;8865;47.636;7.692;2022-08-25T06:39:59;6.33;;;4.00;;
9473;SDS011;8865;47.636;7.692;2022-08-25T06:42:25;4.90;;;3.50;;
9473;SDS011;8865;47.636;7.692;2022-08-25T06:44:52;5.20;;;4.13;;
9473;SDS011;8865;47.636;7.692;2022-08-25T06:47:18;6.70;;;3.87;;
9473;SDS011;8865;47.636;7.692;2022-08-25T06:49:44;4.17;;;3.80;;
9473;SDS011;8865;47.636;7.692;2022-08-25T06:52:10;4.27;;;3.60;;
9473;SDS011;8865;47.636;7.692;2022-08-25T06:54:37;4.20;;;3.87;;
9473;SDS011;8865;47.636;7.692;2022-08-25T06:57:04;6.97;;;4.10;;
9473;SDS011;8865;47.636;7.692;2022-08-25T06:59:31;5.20;;;4.03;;
9473;SDS011;8865;47.636;7.692;2022-08-25T07:02:01;4.40;;;3.50;;
9473;SDS011;8865;47.636;7.692;2022-08-25T07:04:27;4.17;;;3.87;;
9473;SDS011;8865;47.636;7.692;2022-08-25T07:06:53;3.70;;;3.40;;
9473;SDS011;8865;47.636;7.692;2022-08-25T07:09:19;4.90;;;3.47;;
9473;SDS011;8865;47.636;7.692;2022-08-25T07:11:46;4.03;;;3.57;;
9473;SDS011;8865;47.636;7.692;2022-08-25T07:14:12;4.00;;;3.60;;
9473;SDS011;8865;47.636;7.692;2022-08-25T07:16:41;4.17;;;3.70;;
9473;SDS011;8865;47.636;7.692;2022-08-25T07:19:07;4.97;;;3.90;;
9473;SDS011;8865;47.636;7.692;2022-08-25T07:21:35;5.27;;;3.80;;
9473;SDS011;8865;47.636;7.692;2022-08-25T07:24:03;4.03;;;3.70;;
9473;SDS011;8865;47.636;7.692;2022-08-25T07:26:31;4.53;;;3.93;;
9473;SDS011;8865;47.636;7.692;2022-08-25T07:29:08;6.37;;;4.03;;
9473;SDS011;8865;47.636;7.692;2022-08-25T07:31:37;6.10;;;3.50;;
9473;SDS011;8865;47.636;7.692;2022-08-25T07:34:04;3.60;;;3.30;;
9473;SDS011;8865;47.636;7.692;2022-08-25T07:36:50;4.00;;;3.60;;
9473;SDS011;8865;47.636;7.692;2022-08-25T07:39:16;3.80;;;3.40;;
9473;SDS011;8865;47.636;7.692;2022-08-25T07:41:43;3.40;;;3.10;;
9473;SDS011;8865;47.636;7.692;2022-08-25T07:44:09;3.63;;;3.33;;
9473;SDS011;8865;47.636;7.692;2022-08-25T07:46:36;3.50;;;3.20;;
9473;SDS011;8865;47.636;7.692;2022-08-25T07:49:03;3.40;;;3.10;;
9473;SDS011;8865;47.636;7.692;2022-08-25T07:51:30;3.50;;;3.20;;
9473;SDS011;8865;47.636;7.692;2022-08-25T07:53:56;3.17;;;2.87;;
9473;SDS011;8865;47.636;7.692;2022-08-25T07:56:22;4.50;;;3.40;;
9473;SDS011;8865;47.636;7.692;2022-08-25T07:58:48;3.17;;;2.90;;
9473;SDS011;8865;47.636;7.692;2022-08-25T08:01:15;3.97;;;2.70;;
9473;SDS011;8865;47.636;7.692;2022-08-25T08:03:46;3.90;;;3.10;;
9473;SDS011;8865;47.636;7.692;2022-08-25T08:06:13;5.40;;;3.40;;
9473;SDS011;8865;47.636;7.692;2022-08-25T08:08:42;3.67;;;3.10;;
9473;SDS011;8865;47.636;7.692;2022-08-25T08:11:20;3.33;;;3.03;;
9473;SDS011;8865;47.636;7.692;2022-08-25T08:13:51;2.93;;;2.63;;
9473;SDS011;8865;47.636;7.692;2022-08-25T08:16:19;3.93;;;2.90;;
9473;SDS011;8865;47.636;7.692;2022-08-25T08:18:47;3.13;;;2.73;;
9473;SDS011;8865;47.636;7.692;2022-08-25T08:21:24;3.00;;;2.80;;
9473;SDS011;8865;47.636;7.692;2022-08-25T08:23:56;3.13;;;2.93;;
9473;SDS011;8865;47.636;7.692;2022-08-25T08:26:23;4.10;;;2.90;;
9473;SDS011;8865;47.636;7.692;2022-08-25T08:28:49;4.33;;;2.73;;
9473;SDS011;8865;47.636;7.692;2022-08-25T08:31:17;3.43;;;2.80;;
9473;SDS011;8865;47.636;7.692;2022-08-25T08:33:48;2.83;;;2.63;;
9473;SDS011;8865;47.636;7.692;2022-08-25T08:36:15;3.67;;;2.73;;
9473;SDS011;8865;47.636;7.692;2022-08-25T08:38:43;3.67;;;2.70;;
9473;SDS011;8865;47.636;7.692;2022-08-25T08:47:12;3.07;;;2.57;;
9473;SDS011;8865;47.636;7.692;2022-08-25T08:55:22;3.20;;;2.90;;
9473;SDS011;8865;47.636;7.692;2022-08-25T08:57:56;3.00;;;2.80;;
9473;SDS011;8865;47.636;7.692;2022-08-25T09:00:23;3.20;;;2.90;;
9473;SDS011;8865;47.636;7.692;2022-08-25T09:02:59;4.30;;;2.80;;
9473;SDS011;8865;47.636;7.692;2022-08-25T09:05:30;3.43;;;2.53;;
9473;SDS011;8865;47.636;7.692;2022-08-25T09:08:07;4.03;;;2.87;;
9473;SDS011;8865;47.636;7.692;2022-08-25T09:11:00;2.80;;;2.60;;
9473;SDS011;8865;47.636;7.692;2022-08-25T09:30:21;4.57;;;2.70;;
9473;SDS011;8865;47.636;7.692;2022-08-25T09:32:49;2.97;;;2.70;;
9473;SDS011;8865;47.636;7.692;2022-08-25T09:35:22;5.03;;;2.70;;
9473;SDS011;8865;47.636;7.692;2022-08-25T09:37:58;3.93;;;2.77;;
9473;SDS011;8865;47.636;7.692;2022-08-25T09:40:30;3.53;;;2.55;;
9473;SDS011;8865;47.636;7.692;2022-08-25T09:42:59;2.53;;;2.33;;
9473;SDS011;8865;47.636;7.692;2022-08-25T09:47:56;3.13;;;2.47;;
9473;SDS011;8865;47.636;7.692;2022-08-25T09:50:22;5.45;;;2.60;;
9473;SDS011;8865;47.636;7.692;2022-08-25T09:52:48;2.75;;;2.53;;
9473;SDS011;8865;47.636;7.692;2022-08-25T09:55:25;3.00;;;2.58;;
9473;SDS011;8865;47.636;7.692;2022-08-25T09:57:55;3.13;;;2.28;;
9473;SDS011;8865;47.636;7.692;2022-08-25T10:05:33;3.08;;;2.00;;
9473;SDS011;8865;47.636;7.692;2022-08-25T10:08:03;4.18;;;2.22;;
9473;SDS011;8865;47.636;7.692;2022-08-25T10:10:37;4.20;;;2.03;;
9473;SDS011;8865;47.636;7.692;2022-08-25T10:13:14;2.10;;;1.90;;
9473;SDS011;8865;47.636;7.692;2022-08-25T10:15:43;2.47;;;2.00;;
9473;SDS011;8865;47.636;7.692;2022-08-25T10:23:46;2.50;;;1.70;;
9473;SDS011;8865;47.636;7.692;2022-08-25T10:26:22;2.35;;;1.75;;
9473;SDS011;8865;47.636;7.692;2022-08-25T10:31:39;4.05;;;1.80;;
9473;SDS011;8865;47.636;7.692;2022-08-25T10:36:46;2.78;;;1.85;;
9473;SDS011;8865;47.636;7.692;2022-08-25T10:39:27;2.45;;;1.70;;
9473;SDS011;8865;47.636;7.692;2022-08-25T10:42:05;1.85;;;1.60;;
9473;SDS011;8865;47.636;7.692;2022-08-25T10:48:08;2.63;;;1.90;;
9473;SDS011;8865;47.636;7.692;2022-08-25T10:50:49;4.00;;;1.70;;
9473;SDS011;8865;47.636;7.692;2022-08-25T10:56:11;2.22;;;1.70;;
9473;SDS011;8865;47.636;7.692;2022-08-25T11:01:24;2.72;;;1.90;;
9473;SDS011;8865;47.636;7.692;2022-08-25T11:04:17;2.08;;;1.90;;
9473;SDS011;8865;47.636;7.692;2022-08-25T11:09:29;1.83;;;1.70;;
9473;SDS011;8865;47.636;7.692;2022-08-25T11:12:00;2.17;;;1.80;;
9473;SDS011;8865;47.636;7.692;2022-08-25T11:14:35;1.98;;;1.77;;
9473;SDS011;8865;47.636;7.692;2022-08-25T11:17:17;2.08;;;1.65;;
9473;SDS011;8865;47.636;7.692;2022-08-25T11:19:50;1.83;;;1.73;;
9473;SDS011;8865;47.636;7.692;2022-08-25T11:22:22;2.10;;;1.90;;
9473;SDS011;8865;47.636;7.692;2022-08-25T11:27:59;2.00;;;1.90;;
9473;SDS011;8865;47.636;7.692;2022-08-25T11:30:28;2.38;;;2.17;;
9473;SDS011;8865;47.636;7.692;2022-08-25T11:32:54;2.42;;;1.98;;
9473;SDS011;8865;47.636;7.692;2022-08-25T11:35:26;2.70;;;2.10;;
9473;SDS011;8865;47.636;7.692;2022-08-25T11:51:56;4.25;;;1.90;;
9473;SDS011;8865;47.636;7.692;2022-08-25T12:05:05;1.80;;;1.70;;
9473;SDS011;8865;47.636;7.692;2022-08-25T12:13:38;2.10;;;1.88;;
9473;SDS011;8865;47.636;7.692;2022-08-25T12:21:53;3.60;;;2.05;;
9473;SDS011;8865;47.636;7.692;2022-08-25T12:29:46;3.40;;;1.95;;
9473;SDS011;8865;47.636;7.692;2022-08-25T12:34:46;1.92;;;1.83;;
9473;SDS011;8865;47.636;7.692;2022-08-25T12:37:20;3.28;;;1.80;;
9473;SDS011;8865;47.636;7.692;2022-08-25T12:47:51;1.98;;;1.60;;
9473;SDS011;8865;47.636;7.692;2022-08-25T12:53:27;3.75;;;1.60;;
9473;SDS011;8865;47.636;7.692;2022-08-25T12:56:03;2.70;;;1.58;;
9473;SDS011;8865;47.636;7.692;2022-08-25T12:58:46;1.92;;;1.40;;
9473;SDS011;8865;47.636;7.692;2022-08-25T13:09:38;1.77;;;1.50;;
9473;SDS011;8865;47.636;7.692;2022-08-25T13:12:18;3.70;;;1.70;;
9473;SDS011;8865;47.636;7.692;2022-08-25T13:14:53;2.22;;;1.70;;
9473;SDS011;8865;47.636;7.692;2022-08-25T13:17:31;2.88;;;1.40;;
9473;SDS011;8865;47.636;7.692;2022-08-25T13:22:39;2.05;;;1.60;;
9473;SDS011;8865;47.636;7.692;2022-08-25T13:25:05;3.17;;;1.63;;
9473;SDS011;8865;47.636;7.692;2022-08-25T13:27:32;1.73;;;1.63;;
9473;SDS011;8865;47.636;7.692;2022-08-25T13:30:01;1.77;;;1.30;;
9473;SDS011;8865;47.636;7.692;2022-08-25T13:32:29;2.33;;;1.20;;
9473;SDS011;8865;47.636;7.692;2022-08-25T13:35:11;1.88;;;1.40;;
9473;SDS011;8865;47.636;7.692;2022-08-25T13:37:41;2.67;;;1.50;;
9473;SDS011;8865;47.636;7.692;2022-08-25T13:42:42;1.88;;;1.13;;
9473;SDS011;8865;47.636;7.692;2022-08-25T13:45:14;3.25;;;1.45;;
9473;SDS011;8865;47.636;7.692;2022-08-25T13:47:44;2.00;;;1.40;;
9473;SDS011;8865;47.636;7.692;2022-08-25T13:50:16;1.88;;;1.42;;
9473;SDS011;8865;47.636;7.692;2022-08-25T13:52:46;4.25;;;1.40;;
9473;SDS011;8865;47.636;7.692;2022-08-25T13:55:22;2.03;;;1.55;;
9473;SDS011;8865;47.636;7.692;2022-08-25T13:57:53;1.85;;;1.20;;
9473;SDS011;8865;47.636;7.692;2022-08-25T14:00:25;2.78;;;1.38;;
9473;SDS011;8865;47.636;7.692;2022-08-25T14:03:29;3.28;;;1.60;;
9473;SDS011;8865;47.636;7.692;2022-08-25T14:06:04;4.40;;;1.33;;
9473;SDS011;8865;47.636;7.692;2022-08-25T14:08:35;1.88;;;1.33;;
9473;SDS011;8865;47.636;7.692;2022-08-25T14:11:11;2.80;;;1.60;;
9473;SDS011;8865;47.636;7.692;2022-08-25T14:13:38;1.80;;;1.45;;
9473;SDS011;8865;47.636;7.692;2022-08-25T14:16:07;4.97;;;1.60;;
9473;SDS011;8865;47.636;7.692;2022-08-25T14:18:45;2.08;;;1.50;;
9473;SDS011;8865;47.636;7.692;2022-08-25T14:21:13;2.10;;;1.70;;
9473;SDS011;8865;47.636;7.692;2022-08-25T14:23:40;3.13;;;1.40;;
9473;SDS011;8865;47.636;7.692;2022-08-25T14:26:07;2.85;;;1.50;;
9473;SDS011;8865;47.636;7.692;2022-08-25T14:28:33;1.52;;;1.40;;
9473;SDS011;8865;47.636;7.692;2022-08-25T14:33:35;2.53;;;1.65;;
9473;SDS011;8865;47.636;7.692;2022-08-25T14:36:04;1.70;;;1.60;;
9473;SDS011;8865;47.636;7.692;2022-08-25T14:38:31;2.35;;;1.70;;
9473;SDS011;8865;47.636;7.692;2022-08-25T14:40:58;2.55;;;1.70;;
9473;SDS011;8865;47.636;7.692;2022-08-25T14:43:24;2.38;;;1.60;;
9473;SDS011;8865;47.636;7.692;2022-08-25T14:45:50;2.17;;;1.55;;
9473;SDS011;8865;47.636;7.692;2022-08-25T14:51:05;2.10;;;1.75;;
9473;SDS011;8865;47.636;7.692;2022-08-25T14:53:31;1.85;;;1.75;;
9473;SDS011;8865;47.636;7.692;2022-08-25T14:55:58;2.08;;;1.77;;
9473;SDS011;8865;47.636;7.692;2022-08-25T14:58:24;2.50;;;1.80;;
9473;SDS011;8865;47.636;7.692;2022-08-25T15:00:51;2.92;;;1.70;;
9473;SDS011;8865;47.636;7.692;2022-08-25T15:03:19;2.38;;;1.75;;
9473;SDS011;8865;47.636;7.692;2022-08-25T15:05:52;3.20;;;1.70;;
9473;SDS011;8865;47.636;7.692;2022-08-25T15:08:18;3.10;;;1.70;;
9473;SDS011;8865;47.636;7.692;2022-08-25T15:11:03;1.92;;;1.73;;
9473;SDS011;8865;47.636;7.692;2022-08-25T15:13:29;2.03;;;1.70;;
9473;SDS011;8865;47.636;7.692;2022-08-25T15:15:55;2.55;;;2.00;;
9473;SDS011;8865;47.636;7.692;2022-08-25T15:18:24;1.80;;;1.58;;
9473;SDS011;8865;47.636;7.692;2022-08-25T15:20:50;3.92;;;1.73;;
9473;SDS011;8865;47.636;7.692;2022-08-25T15:23:17;2.30;;;1.70;;
9473;SDS011;8865;47.636;7.692;2022-08-25T15:25:44;2.40;;;1.60;;
9473;SDS011;8865;47.636;7.692;2022-08-25T15:28:12;2.75;;;1.90;;
9473;SDS011;8865;47.636;7.692;2022-08-25T15:30:39;1.67;;;1.58;;
9473;SDS011;8865;47.636;7.692;2022-08-25T15:33:05;1.85;;;1.75;;
9473;SDS011;8865;47.636;7.692;2022-08-25T15:35:32;2.03;;;1.63;;
9473;SDS011;8865;47.636;7.692;2022-08-25T15:37:58;2.25;;;1.52;;
9473;SDS011;8865;47.636;7.692;2022-08-25T15:40:26;1.90;;;1.63;;
9473;SDS011;8865;47.636;7.692;2022-08-25T15:42:53;2.88;;;1.77;;
9473;SDS011;8865;47.636;7.692;2022-08-25T15:45:19;3.03;;;1.80;;
9473;SDS011;8865;47.636;7.692;2022-08-25T15:47:45;2.00;;;1.80;;
9473;SDS011;8865;47.636;7.692;2022-08-25T15:50:12;2.90;;;1.90;;
9473;SDS011;8865;47.636;7.692;2022-08-25T15:52:41;4.47;;;2.00;;
9473;SDS011;8865;47.636;7.692;2022-08-25T15:55:07;3.03;;;1.70;;
9473;SDS011;8865;47.636;7.692;2022-08-25T15:57:34;3.42;;;1.85;;
9473;SDS011;8865;47.636;7.692;2022-08-25T16:00:03;3.13;;;1.98;;
9473;SDS011;8865;47.636;7.692;2022-08-25T16:02:31;6.28;;;2.08;;
9473;SDS011;8865;47.636;7.692;2022-08-25T16:04:59;1.80;;;1.70;;
9473;SDS011;8865;47.636;7.692;2022-08-25T16:07:25;3.25;;;1.77;;
9473;SDS011;8865;47.636;7.692;2022-08-25T16:09:55;1.98;;;1.77;;
9473;SDS011;8865;47.636;7.692;2022-08-25T16:12:22;2.13;;;1.90;;
9473;SDS011;8865;47.636;7.692;2022-08-25T16:14:51;1.92;;;1.77;;
9473;SDS011;8865;47.636;7.692;2022-08-25T16:17:18;2.45;;;1.77;;
9473;SDS011;8865;47.636;7.692;2022-08-25T16:19:45;1.80;;;1.60;;
9473;SDS011;8865;47.636;7.692;2022-08-25T16:22:11;1.55;;;1.45;;
9473;SDS011;8865;47.636;7.692;2022-08-25T16:24:38;4.00;;;1.90;;
9473;SDS011;8865;47.636;7.692;2022-08-25T16:27:05;2.58;;;2.00;;
9473;SDS011;8865;47.636;7.692;2022-08-25T16:29:33;2.15;;;1.73;;
9473;SDS011;8865;47.636;7.692;2022-08-25T16:32:04;2.03;;;1.70;;
9473;SDS011;8865;47.636;7.692;2022-08-25T16:34:32;2.97;;;2.10;;
9473;SDS011;8865;47.636;7.692;2022-08-25T16:36:58;5.45;;;1.90;;
9473;SDS011;8865;47.636;7.692;2022-08-25T16:39:25;2.45;;;1.88;;
9473;SDS011;8865;47.636;7.692;2022-08-25T16:41:51;1.65;;;1.55;;
9473;SDS011;8865;47.636;7.692;2022-08-25T16:44:17;3.75;;;1.90;;
9473;SDS011;8865;47.636;7.692;2022-08-25T16:46:45;2.10;;;1.98;;
9473;SDS011;8865;47.636;7.692;2022-08-25T16:49:12;2.08;;;1.88;;
9473;SDS011;8865;47.636;7.692;2022-08-25T16:51:39;2.13;;;1.70;;
9473;SDS011;8865;47.636;7.692;2022-08-25T16:54:07;2.65;;;1.75;;
9473;SDS011;8865;47.636;7.692;2022-08-25T16:56:55;2.00;;;1.80;;
9473;SDS011;8865;47.636;7.692;2022-08-25T16:59:22;3.17;;;1.80;;
9473;SDS011;8865;47.636;7.692;2022-08-25T17:01:49;2.30;;;2.10;;
9473;SDS011;8865;47.636;7.692;2022-08-25T17:04:16;3.25;;;1.95;;
9473;SDS011;8865;47.636;7.692;2022-08-25T17:06:42;2.58;;;1.88;;
9473;SDS011;8865;47.636;7.692;2022-08-25T17:09:09;2.00;;;1.90;;
9473;SDS011;8865;47.636;7.692;2022-08-25T17:11:45;4.80;;;3.95;;
9473;SDS011;8865;47.636;7.692;2022-08-25T17:14:15;7.68;;;5.22;;
9473;SDS011;8865;47.636;7.692;2022-08-25T17:16:42;4.07;;;3.50;;
9473;SDS011;8865;47.636;7.692;2022-08-25T17:19:09;4.85;;;3.30;;
9473;SDS011;8865;47.636;7.692;2022-08-25T17:21:38;4.30;;;3.03;;
9473;SDS011;8865;47.636;7.692;2022-08-25T17:24:05;3.13;;;2.63;;
9473;SDS011;8865;47.636;7.692;2022-08-25T17:26:32;6.47;;;4.63;;
9473;SDS011;8865;47.636;7.692;2022-08-25T17:29:02;3.90;;;3.50;;
9473;SDS011;8865;47.636;7.692;2022-08-25T17:31:29;6.07;;;3.38;;
9473;SDS011;8865;47.636;7.692;2022-08-25T17:33:55;5.22;;;3.35;;
9473;SDS011;8865;47.636;7.692;2022-08-25T17:36:21;3.55;;;2.70;;
9473;SDS011;8865;47.636;7.692;2022-08-25T17:38:47;3.67;;;2.53;;
9473;SDS011;8865;47.636;7.692;2022-08-25T17:41:13;9.27;;;2.60;;
9473;SDS011;8865;47.636;7.692;2022-08-25T17:43:40;4.50;;;2.33;;